IKA weather

Imam Khomeini International Airport
Tehran, Tehran Province, Iran

Public forecast

Using degrees Celsius for public forecast. Weather courtesy of forecast.io.

METAR (pilot weather report)

Retrieved 2019/03/23 10:30 UTC (12 minutes ago):

OIIE 231030Z 11012KT 9999 FEW040 BKN160 16/M05 Q1015

TAF (pilot weather forecast)

Retrieved 2019/03/23 06:00 UTC (5 hours ago):

TAF OIIE 230530Z 2306/2412 13010KT FEW035 SCT100 TEMPO 2308/2315 13016KT TEMPO 2316/2322 07014KT FEW035CB SCT040 BKN090 TEMPO 2409/2412 13016KT FEW035CB SCT040 BKN090